sensor_id;sensor_type;location;lat;lon;timestamp;P1;durP1;ratioP1;P2;durP2;ratioP2
14688;SDS011;7432;48.728;9.154;2022-12-11T00:01:38;20.30;;;13.67;;
14688;SDS011;7432;48.728;9.154;2022-12-11T00:04:06;20.27;;;14.00;;
14688;SDS011;7432;48.728;9.154;2022-12-11T00:06:32;18.83;;;13.73;;
14688;SDS011;7432;48.728;9.154;2022-12-11T00:08:59;21.03;;;15.07;;
14688;SDS011;7432;48.728;9.154;2022-12-11T00:11:26;23.23;;;15.17;;
14688;SDS011;7432;48.728;9.154;2022-12-11T00:13:52;22.57;;;15.17;;
14688;SDS011;7432;48.728;9.154;2022-12-11T00:16:18;20.27;;;14.20;;
14688;SDS011;7432;48.728;9.154;2022-12-11T00:18:45;20.07;;;14.07;;
14688;SDS011;7432;48.728;9.154;2022-12-11T00:21:13;21.37;;;15.10;;
14688;SDS011;7432;48.728;9.154;2022-12-11T00:23:40;20.20;;;14.63;;
14688;SDS011;7432;48.728;9.154;2022-12-11T00:26:07;21.00;;;13.63;;
14688;SDS011;7432;48.728;9.154;2022-12-11T00:28:34;19.63;;;14.03;;
14688;SDS011;7432;48.728;9.154;2022-12-11T00:31:02;18.37;;;13.47;;
14688;SDS011;7432;48.728;9.154;2022-12-11T00:33:29;20.83;;;14.80;;
14688;SDS011;7432;48.728;9.154;2022-12-11T00:35:56;22.10;;;14.83;;
14688;SDS011;7432;48.728;9.154;2022-12-11T00:38:23;20.57;;;14.33;;
14688;SDS011;7432;48.728;9.154;2022-12-11T00:40:50;20.67;;;14.50;;
14688;SDS011;7432;48.728;9.154;2022-12-11T00:43:16;20.20;;;14.83;;
14688;SDS011;7432;48.728;9.154;2022-12-11T00:45:43;19.70;;;14.40;;
14688;SDS011;7432;48.728;9.154;2022-12-11T00:48:11;20.10;;;14.70;;
14688;SDS011;7432;48.728;9.154;2022-12-11T00:50:38;20.87;;;14.10;;
14688;SDS011;7432;48.728;9.154;2022-12-11T00:53:05;19.87;;;15.13;;
14688;SDS011;7432;48.728;9.154;2022-12-11T00:55:36;17.10;;;13.67;;
14688;SDS011;7432;48.728;9.154;2022-12-11T00:58:05;20.43;;;14.87;;
14688;SDS011;7432;48.728;9.154;2022-12-11T01:00:32;18.50;;;13.87;;
14688;SDS011;7432;48.728;9.154;2022-12-11T01:02:58;19.60;;;14.43;;
14688;SDS011;7432;48.728;9.154;2022-12-11T01:05:24;23.23;;;14.83;;
14688;SDS011;7432;48.728;9.154;2022-12-11T01:07:51;19.77;;;14.07;;
14688;SDS011;7432;48.728;9.154;2022-12-11T01:10:17;19.50;;;14.77;;
14688;SDS011;7432;48.728;9.154;2022-12-11T01:12:51;21.97;;;15.67;;
14688;SDS011;7432;48.728;9.154;2022-12-11T01:15:18;20.77;;;14.97;;
14688;SDS011;7432;48.728;9.154;2022-12-11T01:17:47;24.13;;;15.80;;
14688;SDS011;7432;48.728;9.154;2022-12-11T01:20:14;20.87;;;14.40;;
14688;SDS011;7432;48.728;9.154;2022-12-11T01:22:41;20.43;;;14.90;;
14688;SDS011;7432;48.728;9.154;2022-12-11T01:25:08;24.37;;;16.77;;
14688;SDS011;7432;48.728;9.154;2022-12-11T01:27:34;20.47;;;15.33;;
14688;SDS011;7432;48.728;9.154;2022-12-11T01:30:02;23.37;;;15.57;;
14688;SDS011;7432;48.728;9.154;2022-12-11T01:32:31;23.90;;;15.90;;
14688;SDS011;7432;48.728;9.154;2022-12-11T01:34:58;21.97;;;16.17;;
14688;SDS011;7432;48.728;9.154;2022-12-11T01:37:25;23.53;;;15.87;;
14688;SDS011;7432;48.728;9.154;2022-12-11T01:39:51;22.93;;;15.50;;
14688;SDS011;7432;48.728;9.154;2022-12-11T01:42:18;22.33;;;16.20;;
14688;SDS011;7432;48.728;9.154;2022-12-11T01:47:54;22.20;;;16.00;;
14688;SDS011;7432;48.728;9.154;2022-12-11T01:50:25;22.30;;;16.03;;
14688;SDS011;7432;48.728;9.154;2022-12-11T01:52:52;21.77;;;16.53;;
14688;SDS011;7432;48.728;9.154;2022-12-11T01:55:19;22.77;;;17.30;;
14688;SDS011;7432;48.728;9.154;2022-12-11T01:57:47;22.90;;;16.63;;
14688;SDS011;7432;48.728;9.154;2022-12-11T02:00:16;22.97;;;17.10;;
14688;SDS011;7432;48.728;9.154;2022-12-11T02:02:43;22.07;;;16.17;;
14688;SDS011;7432;48.728;9.154;2022-12-11T02:05:11;21.47;;;15.13;;
14688;SDS011;7432;48.728;9.154;2022-12-11T02:07:39;21.87;;;15.20;;
14688;SDS011;7432;48.728;9.154;2022-12-11T02:10:08;19.63;;;14.60;;
14688;SDS011;7432;48.728;9.154;2022-12-11T02:12:38;23.43;;;15.93;;
14688;SDS011;7432;48.728;9.154;2022-12-11T02:15:14;21.40;;;14.97;;
14688;SDS011;7432;48.728;9.154;2022-12-11T02:17:45;21.00;;;16.00;;
14688;SDS011;7432;48.728;9.154;2022-12-11T02:20:19;23.13;;;16.20;;
14688;SDS011;7432;48.728;9.154;2022-12-11T02:22:52;21.03;;;15.00;;
14688;SDS011;7432;48.728;9.154;2022-12-11T02:25:30;22.83;;;15.00;;
14688;SDS011;7432;48.728;9.154;2022-12-11T02:28:09;19.70;;;15.10;;
14688;SDS011;7432;48.728;9.154;2022-12-11T02:30:43;23.53;;;15.43;;
14688;SDS011;7432;48.728;9.154;2022-12-11T02:33:14;21.73;;;15.27;;
14688;SDS011;7432;48.728;9.154;2022-12-11T02:35:42;19.20;;;14.10;;
14688;SDS011;7432;48.728;9.154;2022-12-11T02:38:11;21.73;;;14.40;;
14688;SDS011;7432;48.728;9.154;2022-12-11T02:40:41;20.93;;;14.90;;
14688;SDS011;7432;48.728;9.154;2022-12-11T02:43:12;18.07;;;13.20;;
14688;SDS011;7432;48.728;9.154;2022-12-11T02:45:42;19.27;;;13.73;;
14688;SDS011;7432;48.728;9.154;2022-12-11T02:48:11;16.33;;;12.37;;
14688;SDS011;7432;48.728;9.154;2022-12-11T02:50:41;18.87;;;13.30;;
14688;SDS011;7432;48.728;9.154;2022-12-11T02:53:10;15.27;;;11.47;;
14688;SDS011;7432;48.728;9.154;2022-12-11T02:55:38;19.07;;;13.57;;
14688;SDS011;7432;48.728;9.154;2022-12-11T02:58:07;18.63;;;13.40;;
14688;SDS011;7432;48.728;9.154;2022-12-11T03:00:41;16.97;;;12.33;;
14688;SDS011;7432;48.728;9.154;2022-12-11T03:03:09;16.13;;;12.20;;
14688;SDS011;7432;48.728;9.154;2022-12-11T03:05:35;15.83;;;12.17;;
14688;SDS011;7432;48.728;9.154;2022-12-11T03:08:02;16.17;;;12.80;;
14688;SDS011;7432;48.728;9.154;2022-12-11T03:10:29;17.23;;;12.50;;
14688;SDS011;7432;48.728;9.154;2022-12-11T03:12:56;16.67;;;12.43;;
14688;SDS011;7432;48.728;9.154;2022-12-11T03:15:27;15.30;;;11.47;;
14688;SDS011;7432;48.728;9.154;2022-12-11T03:18:02;13.93;;;11.40;;
14688;SDS011;7432;48.728;9.154;2022-12-11T03:20:35;15.47;;;12.10;;
14688;SDS011;7432;48.728;9.154;2022-12-11T03:23:08;16.80;;;12.47;;
14688;SDS011;7432;48.728;9.154;2022-12-11T03:25:43;15.77;;;11.27;;
14688;SDS011;7432;48.728;9.154;2022-12-11T03:28:17;15.60;;;10.67;;
14688;SDS011;7432;48.728;9.154;2022-12-11T03:30:48;16.10;;;12.03;;
14688;SDS011;7432;48.728;9.154;2022-12-11T03:33:19;14.90;;;11.47;;
14688;SDS011;7432;48.728;9.154;2022-12-11T03:35:50;16.70;;;14.53;;
14688;SDS011;7432;48.728;9.154;2022-12-11T03:38:21;15.37;;;11.30;;
14688;SDS011;7432;48.728;9.154;2022-12-11T03:40:50;15.93;;;12.10;;
14688;SDS011;7432;48.728;9.154;2022-12-11T03:43:22;15.87;;;12.70;;
14688;SDS011;7432;48.728;9.154;2022-12-11T03:45:51;16.80;;;11.97;;
14688;SDS011;7432;48.728;9.154;2022-12-11T03:48:19;14.90;;;10.80;;
14688;SDS011;7432;48.728;9.154;2022-12-11T03:50:46;12.63;;;10.43;;
14688;SDS011;7432;48.728;9.154;2022-12-11T03:53:15;16.63;;;12.87;;
14688;SDS011;7432;48.728;9.154;2022-12-11T03:55:42;16.80;;;13.73;;
14688;SDS011;7432;48.728;9.154;2022-12-11T03:58:08;17.10;;;13.30;;
14688;SDS011;7432;48.728;9.154;2022-12-11T04:00:35;15.13;;;11.17;;
14688;SDS011;7432;48.728;9.154;2022-12-11T04:03:03;15.33;;;12.17;;
14688;SDS011;7432;48.728;9.154;2022-12-11T04:05:38;15.07;;;11.23;;
14688;SDS011;7432;48.728;9.154;2022-12-11T04:08:05;16.23;;;12.37;;
14688;SDS011;7432;48.728;9.154;2022-12-11T04:10:31;17.87;;;13.37;;
14688;SDS011;7432;48.728;9.154;2022-12-11T04:12:58;14.73;;;11.83;;
14688;SDS011;7432;48.728;9.154;2022-12-11T04:15:24;16.63;;;12.50;;
14688;SDS011;7432;48.728;9.154;2022-12-11T04:17:50;15.63;;;11.50;;
14688;SDS011;7432;48.728;9.154;2022-12-11T04:20:35;14.20;;;12.23;;
14688;SDS011;7432;48.728;9.154;2022-12-11T04:23:19;17.87;;;12.47;;
14688;SDS011;7432;48.728;9.154;2022-12-11T04:26:03;14.93;;;11.87;;
14688;SDS011;7432;48.728;9.154;2022-12-11T04:28:30;16.17;;;12.17;;
14688;SDS011;7432;48.728;9.154;2022-12-11T04:30:57;16.37;;;12.07;;
14688;SDS011;7432;48.728;9.154;2022-12-11T04:33:23;14.40;;;11.60;;
14688;SDS011;7432;48.728;9.154;2022-12-11T04:35:51;15.17;;;12.50;;
14688;SDS011;7432;48.728;9.154;2022-12-11T04:38:17;16.07;;;12.10;;
14688;SDS011;7432;48.728;9.154;2022-12-11T04:40:44;18.13;;;13.53;;
14688;SDS011;7432;48.728;9.154;2022-12-11T04:43:10;16.50;;;12.47;;
14688;SDS011;7432;48.728;9.154;2022-12-11T04:45:36;15.60;;;12.13;;
14688;SDS011;7432;48.728;9.154;2022-12-11T04:48:03;16.50;;;12.50;;
14688;SDS011;7432;48.728;9.154;2022-12-11T04:50:30;15.20;;;11.83;;
14688;SDS011;7432;48.728;9.154;2022-12-11T04:52:57;19.37;;;13.70;;
14688;SDS011;7432;48.728;9.154;2022-12-11T04:55:24;17.53;;;12.73;;
14688;SDS011;7432;48.728;9.154;2022-12-11T04:57:50;17.20;;;12.27;;
14688;SDS011;7432;48.728;9.154;2022-12-11T05:00:17;18.70;;;13.37;;
14688;SDS011;7432;48.728;9.154;2022-12-11T05:02:43;16.23;;;12.47;;
14688;SDS011;7432;48.728;9.154;2022-12-11T05:05:10;16.83;;;12.93;;
14688;SDS011;7432;48.728;9.154;2022-12-11T05:07:37;16.47;;;12.23;;
14688;SDS011;7432;48.728;9.154;2022-12-11T05:10:05;16.17;;;11.57;;
14688;SDS011;7432;48.728;9.154;2022-12-11T05:12:33;14.87;;;11.20;;
14688;SDS011;7432;48.728;9.154;2022-12-11T05:14:59;17.00;;;12.07;;
14688;SDS011;7432;48.728;9.154;2022-12-11T05:17:25;17.50;;;12.07;;
14688;SDS011;7432;48.728;9.154;2022-12-11T05:19:52;15.13;;;11.77;;
14688;SDS011;7432;48.728;9.154;2022-12-11T05:22:18;15.77;;;11.37;;
14688;SDS011;7432;48.728;9.154;2022-12-11T05:24:45;15.20;;;11.93;;
14688;SDS011;7432;48.728;9.154;2022-12-11T05:27:13;15.40;;;11.93;;
14688;SDS011;7432;48.728;9.154;2022-12-11T05:29:39;15.47;;;11.63;;
14688;SDS011;7432;48.728;9.154;2022-12-11T05:32:05;15.00;;;11.63;;
14688;SDS011;7432;48.728;9.154;2022-12-11T05:34:32;16.53;;;12.63;;
14688;SDS011;7432;48.728;9.154;2022-12-11T05:36:58;16.03;;;11.90;;
14688;SDS011;7432;48.728;9.154;2022-12-11T05:39:25;16.57;;;11.07;;
14688;SDS011;7432;48.728;9.154;2022-12-11T05:41:51;14.87;;;12.07;;
14688;SDS011;7432;48.728;9.154;2022-12-11T05:44:19;17.27;;;11.73;;
14688;SDS011;7432;48.728;9.154;2022-12-11T05:46:46;14.90;;;11.03;;
14688;SDS011;7432;48.728;9.154;2022-12-11T05:49:13;16.90;;;12.33;;
14688;SDS011;7432;48.728;9.154;2022-12-11T05:51:40;14.43;;;10.80;;
14688;SDS011;7432;48.728;9.154;2022-12-11T05:54:07;14.70;;;11.33;;
14688;SDS011;7432;48.728;9.154;2022-12-11T05:56:35;16.57;;;12.13;;
14688;SDS011;7432;48.728;9.154;2022-12-11T05:59:02;17.07;;;12.43;;
14688;SDS011;7432;48.728;9.154;2022-12-11T06:01:32;15.47;;;11.20;;
14688;SDS011;7432;48.728;9.154;2022-12-11T06:04:00;17.27;;;12.23;;
14688;SDS011;7432;48.728;9.154;2022-12-11T06:06:29;20.87;;;14.27;;
14688;SDS011;7432;48.728;9.154;2022-12-11T06:08:56;49.50;;;27.50;;
14688;SDS011;7432;48.728;9.154;2022-12-11T06:11:24;34.07;;;20.63;;
14688;SDS011;7432;48.728;9.154;2022-12-11T06:13:52;28.23;;;17.77;;
14688;SDS011;7432;48.728;9.154;2022-12-11T06:16:18;25.17;;;17.37;;
14688;SDS011;7432;48.728;9.154;2022-12-11T06:18:47;20.50;;;14.30;;
14688;SDS011;7432;48.728;9.154;2022-12-11T06:21:15;23.13;;;16.27;;
14688;SDS011;7432;48.728;9.154;2022-12-11T06:23:45;19.93;;;14.17;;
14688;SDS011;7432;48.728;9.154;2022-12-11T06:26:13;22.43;;;13.67;;
14688;SDS011;7432;48.728;9.154;2022-12-11T06:28:39;15.60;;;12.20;;
14688;SDS011;7432;48.728;9.154;2022-12-11T06:31:06;16.43;;;12.27;;
14688;SDS011;7432;48.728;9.154;2022-12-11T06:33:33;16.87;;;12.50;;
14688;SDS011;7432;48.728;9.154;2022-12-11T06:36:02;17.70;;;12.90;;
14688;SDS011;7432;48.728;9.154;2022-12-11T06:38:29;18.50;;;11.83;;
14688;SDS011;7432;48.728;9.154;2022-12-11T06:40:56;18.80;;;13.00;;
14688;SDS011;7432;48.728;9.154;2022-12-11T06:43:23;18.37;;;13.00;;
14688;SDS011;7432;48.728;9.154;2022-12-11T06:45:50;18.90;;;13.13;;
14688;SDS011;7432;48.728;9.154;2022-12-11T06:48:16;20.53;;;13.60;;
14688;SDS011;7432;48.728;9.154;2022-12-11T06:50:43;19.97;;;14.27;;
14688;SDS011;7432;48.728;9.154;2022-12-11T06:53:12;21.73;;;13.87;;
14688;SDS011;7432;48.728;9.154;2022-12-11T06:55:39;18.57;;;13.33;;
14688;SDS011;7432;48.728;9.154;2022-12-11T06:58:05;19.10;;;14.27;;
14688;SDS011;7432;48.728;9.154;2022-12-11T07:00:33;18.70;;;12.97;;
14688;SDS011;7432;48.728;9.154;2022-12-11T07:03:00;20.23;;;13.37;;
14688;SDS011;7432;48.728;9.154;2022-12-11T07:05:26;23.00;;;14.50;;
14688;SDS011;7432;48.728;9.154;2022-12-11T07:07:53;19.73;;;13.17;;
14688;SDS011;7432;48.728;9.154;2022-12-11T07:10:21;21.23;;;14.63;;
14688;SDS011;7432;48.728;9.154;2022-12-11T07:12:48;20.17;;;14.10;;
14688;SDS011;7432;48.728;9.154;2022-12-11T07:15:17;19.60;;;14.10;;
14688;SDS011;7432;48.728;9.154;2022-12-11T07:17:43;20.33;;;13.70;;
14688;SDS011;7432;48.728;9.154;2022-12-11T07:20:10;20.67;;;13.30;;
14688;SDS011;7432;48.728;9.154;2022-12-11T07:22:36;20.67;;;14.30;;
14688;SDS011;7432;48.728;9.154;2022-12-11T07:25:03;20.97;;;14.17;;
14688;SDS011;7432;48.728;9.154;2022-12-11T07:27:31;20.87;;;14.27;;
14688;SDS011;7432;48.728;9.154;2022-12-11T07:29:57;21.23;;;13.57;;
14688;SDS011;7432;48.728;9.154;2022-12-11T07:32:23;24.43;;;14.87;;
14688;SDS011;7432;48.728;9.154;2022-12-11T07:34:50;19.07;;;13.50;;
14688;SDS011;7432;48.728;9.154;2022-12-11T07:37:16;21.30;;;14.27;;
14688;SDS011;7432;48.728;9.154;2022-12-11T07:39:43;19.60;;;13.73;;
14688;SDS011;7432;48.728;9.154;2022-12-11T07:42:09;18.60;;;13.17;;
14688;SDS011;7432;48.728;9.154;2022-12-11T07:44:37;18.37;;;12.67;;
14688;SDS011;7432;48.728;9.154;2022-12-11T07:47:03;16.77;;;12.83;;
14688;SDS011;7432;48.728;9.154;2022-12-11T07:49:29;17.60;;;12.47;;
14688;SDS011;7432;48.728;9.154;2022-12-11T07:51:56;19.00;;;13.33;;
14688;SDS011;7432;48.728;9.154;2022-12-11T07:54:22;18.03;;;12.33;;
14688;SDS011;7432;48.728;9.154;2022-12-11T07:56:49;20.40;;;14.23;;
14688;SDS011;7432;48.728;9.154;2022-12-11T07:59:15;18.57;;;13.03;;
14688;SDS011;7432;48.728;9.154;2022-12-11T08:01:43;17.30;;;12.83;;
14688;SDS011;7432;48.728;9.154;2022-12-11T08:04:10;18.77;;;13.03;;
14688;SDS011;7432;48.728;9.154;2022-12-11T08:06:39;16.63;;;12.57;;
14688;SDS011;7432;48.728;9.154;2022-12-11T08:09:08;20.70;;;13.10;;
14688;SDS011;7432;48.728;9.154;2022-12-11T08:11:35;18.27;;;12.47;;
14688;SDS011;7432;48.728;9.154;2022-12-11T08:14:02;14.60;;;11.13;;
14688;SDS011;7432;48.728;9.154;2022-12-11T08:16:30;14.50;;;11.17;;
14688;SDS011;7432;48.728;9.154;2022-12-11T08:18:58;15.70;;;11.63;;
14688;SDS011;7432;48.728;9.154;2022-12-11T08:21:25;16.43;;;11.63;;
14688;SDS011;7432;48.728;9.154;2022-12-11T08:23:53;15.30;;;11.93;;
14688;SDS011;7432;48.728;9.154;2022-12-11T08:26:21;15.23;;;11.47;;
14688;SDS011;7432;48.728;9.154;2022-12-11T08:28:49;13.83;;;11.10;;
14688;SDS011;7432;48.728;9.154;2022-12-11T08:31:16;15.03;;;11.60;;
14688;SDS011;7432;48.728;9.154;2022-12-11T08:33:44;17.37;;;11.73;;
14688;SDS011;7432;48.728;9.154;2022-12-11T08:36:13;16.17;;;12.13;;
14688;SDS011;7432;48.728;9.154;2022-12-11T08:38:41;15.67;;;11.50;;
14688;SDS011;7432;48.728;9.154;2022-12-11T08:41:08;14.93;;;11.77;;
14688;SDS011;7432;48.728;9.154;2022-12-11T08:43:35;15.70;;;12.50;;
14688;SDS011;7432;48.728;9.154;2022-12-11T08:46:01;15.67;;;12.50;;
14688;SDS011;7432;48.728;9.154;2022-12-11T08:48:28;15.70;;;11.77;;
14688;SDS011;7432;48.728;9.154;2022-12-11T08:50:55;15.77;;;12.17;;
14688;SDS011;7432;48.728;9.154;2022-12-11T08:53:25;13.10;;;11.10;;
14688;SDS011;7432;48.728;9.154;2022-12-11T08:55:52;16.30;;;12.17;;
14688;SDS011;7432;48.728;9.154;2022-12-11T08:58:18;16.37;;;11.70;;
14688;SDS011;7432;48.728;9.154;2022-12-11T09:00:45;16.20;;;12.40;;
14688;SDS011;7432;48.728;9.154;2022-12-11T09:03:11;16.23;;;11.27;;
14688;SDS011;7432;48.728;9.154;2022-12-11T09:05:37;15.90;;;11.80;;
14688;SDS011;7432;48.728;9.154;2022-12-11T09:08:04;17.13;;;10.90;;
14688;SDS011;7432;48.728;9.154;2022-12-11T09:10:32;13.93;;;11.30;;
14688;SDS011;7432;48.728;9.154;2022-12-11T09:12:58;16.10;;;11.80;;
14688;SDS011;7432;48.728;9.154;2022-12-11T09:15:25;16.17;;;12.50;;
14688;SDS011;7432;48.728;9.154;2022-12-11T09:17:51;17.63;;;12.40;;
14688;SDS011;7432;48.728;9.154;2022-12-11T09:20:18;15.53;;;11.77;;
14688;SDS011;7432;48.728;9.154;2022-12-11T09:22:44;16.97;;;12.80;;
14688;SDS011;7432;48.728;9.154;2022-12-11T09:25:11;15.53;;;12.00;;
14688;SDS011;7432;48.728;9.154;2022-12-11T09:27:38;17.37;;;12.63;;
14688;SDS011;7432;48.728;9.154;2022-12-11T09:30:06;15.20;;;11.87;;
14688;SDS011;7432;48.728;9.154;2022-12-11T09:32:33;15.33;;;11.97;;
14688;SDS011;7432;48.728;9.154;2022-12-11T09:34:59;15.77;;;11.87;;
14688;SDS011;7432;48.728;9.154;2022-12-11T09:37:26;15.33;;;12.30;;
14688;SDS011;7432;48.728;9.154;2022-12-11T09:39:52;14.37;;;11.67;;
14688;SDS011;7432;48.728;9.154;2022-12-11T09:42:20;13.00;;;10.93;;
14688;SDS011;7432;48.728;9.154;2022-12-11T09:44:53;15.00;;;11.17;;
14688;SDS011;7432;48.728;9.154;2022-12-11T09:47:24;16.10;;;12.67;;
14688;SDS011;7432;48.728;9.154;2022-12-11T09:49:57;15.63;;;11.80;;
14688;SDS011;7432;48.728;9.154;2022-12-11T09:52:32;14.10;;;11.30;;
14688;SDS011;7432;48.728;9.154;2022-12-11T09:55:05;13.73;;;11.00;;
14688;SDS011;7432;48.728;9.154;2022-12-11T09:57:41;15.63;;;11.40;;
14688;SDS011;7432;48.728;9.154;2022-12-11T10:00:18;12.93;;;10.40;;
14688;SDS011;7432;48.728;9.154;2022-12-11T10:03:00;13.73;;;11.17;;
14688;SDS011;7432;48.728;9.154;2022-12-11T10:05:46;15.70;;;12.87;;
14688;SDS011;7432;48.728;9.154;2022-12-11T10:08:22;13.07;;;10.43;;
14688;SDS011;7432;48.728;9.154;2022-12-11T10:10:56;14.70;;;11.17;;
14688;SDS011;7432;48.728;9.154;2022-12-11T10:13:33;15.03;;;11.93;;
14688;SDS011;7432;48.728;9.154;2022-12-11T10:16:10;14.23;;;12.47;;
14688;SDS011;7432;48.728;9.154;2022-12-11T10:18:46;14.57;;;11.33;;
14688;SDS011;7432;48.728;9.154;2022-12-11T10:21:13;14.10;;;11.13;;
14688;SDS011;7432;48.728;9.154;2022-12-11T10:23:45;14.10;;;11.37;;
14688;SDS011;7432;48.728;9.154;2022-12-11T10:26:18;15.47;;;12.37;;
14688;SDS011;7432;48.728;9.154;2022-12-11T10:28:45;16.23;;;11.80;;
14688;SDS011;7432;48.728;9.154;2022-12-11T10:31:15;16.17;;;12.57;;
14688;SDS011;7432;48.728;9.154;2022-12-11T10:33:45;15.73;;;11.70;;
14688;SDS011;7432;48.728;9.154;2022-12-11T10:36:21;16.77;;;12.20;;
14688;SDS011;7432;48.728;9.154;2022-12-11T10:38:52;14.60;;;11.70;;
14688;SDS011;7432;48.728;9.154;2022-12-11T10:41:19;17.17;;;12.70;;
14688;SDS011;7432;48.728;9.154;2022-12-11T10:43:49;14.53;;;11.90;;
14688;SDS011;7432;48.728;9.154;2022-12-11T10:46:19;13.17;;;10.80;;
14688;SDS011;7432;48.728;9.154;2022-12-11T10:48:47;13.03;;;10.47;;
14688;SDS011;7432;48.728;9.154;2022-12-11T10:51:17;12.40;;;9.90;;
14688;SDS011;7432;48.728;9.154;2022-12-11T10:53:47;12.73;;;10.33;;
14688;SDS011;7432;48.728;9.154;2022-12-11T10:56:15;15.03;;;10.80;;
14688;SDS011;7432;48.728;9.154;2022-12-11T10:58:51;13.43;;;10.23;;
14688;SDS011;7432;48.728;9.154;2022-12-11T11:01:20;13.87;;;10.53;;
14688;SDS011;7432;48.728;9.154;2022-12-11T11:03:52;14.07;;;10.37;;
14688;SDS011;7432;48.728;9.154;2022-12-11T11:06:21;13.50;;;10.67;;
14688;SDS011;7432;48.728;9.154;2022-12-11T11:08:50;12.97;;;9.63;;
14688;SDS011;7432;48.728;9.154;2022-12-11T11:11:22;11.47;;;9.77;;
14688;SDS011;7432;48.728;9.154;2022-12-11T11:13:51;15.33;;;11.27;;
14688;SDS011;7432;48.728;9.154;2022-12-11T11:16:20;13.03;;;9.90;;
14688;SDS011;7432;48.728;9.154;2022-12-11T11:18:51;12.40;;;10.13;;
14688;SDS011;7432;48.728;9.154;2022-12-11T11:21:20;13.00;;;10.07;;
14688;SDS011;7432;48.728;9.154;2022-12-11T11:23:48;15.20;;;11.93;;
14688;SDS011;7432;48.728;9.154;2022-12-11T11:26:15;13.97;;;10.87;;
14688;SDS011;7432;48.728;9.154;2022-12-11T11:28:46;16.40;;;11.00;;
14688;SDS011;7432;48.728;9.154;2022-12-11T11:31:14;13.70;;;10.03;;
14688;SDS011;7432;48.728;9.154;2022-12-11T11:33:45;12.90;;;10.10;;
14688;SDS011;7432;48.728;9.154;2022-12-11T11:36:20;13.90;;;10.03;;
14688;SDS011;7432;48.728;9.154;2022-12-11T11:38:48;13.77;;;10.83;;
14688;SDS011;7432;48.728;9.154;2022-12-11T11:41:23;13.37;;;9.83;;
14688;SDS011;7432;48.728;9.154;2022-12-11T11:43:53;16.87;;;10.47;;
14688;SDS011;7432;48.728;9.154;2022-12-11T11:46:23;12.80;;;10.53;;
14688;SDS011;7432;48.728;9.154;2022-12-11T11:48:57;18.20;;;11.77;;
14688;SDS011;7432;48.728;9.154;2022-12-11T11:51:32;14.60;;;10.70;;
14688;SDS011;7432;48.728;9.154;2022-12-11T11:54:02;12.80;;;9.93;;
14688;SDS011;7432;48.728;9.154;2022-12-11T11:56:34;15.23;;;11.40;;
14688;SDS011;7432;48.728;9.154;2022-12-11T11:59:04;13.90;;;10.70;;
14688;SDS011;7432;48.728;9.154;2022-12-11T12:01:36;18.23;;;11.73;;
14688;SDS011;7432;48.728;9.154;2022-12-11T12:04:04;13.83;;;10.67;;
14688;SDS011;7432;48.728;9.154;2022-12-11T12:06:33;15.27;;;10.63;;
14688;SDS011;7432;48.728;9.154;2022-12-11T12:09:13;11.17;;;9.30;;
14688;SDS011;7432;48.728;9.154;2022-12-11T12:11:46;13.20;;;11.30;;
14688;SDS011;7432;48.728;9.154;2022-12-11T12:14:19;13.83;;;11.53;;
14688;SDS011;7432;48.728;9.154;2022-12-11T12:16:51;14.20;;;11.67;;
14688;SDS011;7432;48.728;9.154;2022-12-11T12:19:35;15.27;;;11.80;;
14688;SDS011;7432;48.728;9.154;2022-12-11T12:22:12;16.20;;;11.70;;
14688;SDS011;7432;48.728;9.154;2022-12-11T12:24:48;16.27;;;11.93;;
14688;SDS011;7432;48.728;9.154;2022-12-11T12:27:22;16.03;;;10.50;;
14688;SDS011;7432;48.728;9.154;2022-12-11T12:29:59;16.13;;;11.93;;
14688;SDS011;7432;48.728;9.154;2022-12-11T12:32:30;14.33;;;11.57;;
14688;SDS011;7432;48.728;9.154;2022-12-11T12:35:11;16.67;;;12.10;;
14688;SDS011;7432;48.728;9.154;2022-12-11T12:37:56;15.67;;;11.60;;
14688;SDS011;7432;48.728;9.154;2022-12-11T12:40:29;15.90;;;11.67;;
14688;SDS011;7432;48.728;9.154;2022-12-11T12:43:03;14.33;;;10.97;;
14688;SDS011;7432;48.728;9.154;2022-12-11T12:45:40;13.83;;;10.73;;
14688;SDS011;7432;48.728;9.154;2022-12-11T12:48:13;14.93;;;11.20;;
14688;SDS011;7432;48.728;9.154;2022-12-11T12:50:41;18.23;;;13.67;;
14688;SDS011;7432;48.728;9.154;2022-12-11T12:53:12;15.27;;;12.27;;
14688;SDS011;7432;48.728;9.154;2022-12-11T12:55:42;19.20;;;12.10;;
14688;SDS011;7432;48.728;9.154;2022-12-11T12:58:22;14.83;;;11.40;;
14688;SDS011;7432;48.728;9.154;2022-12-11T13:00:53;14.07;;;11.03;;
14688;SDS011;7432;48.728;9.154;2022-12-11T13:03:31;13.20;;;10.00;;
14688;SDS011;7432;48.728;9.154;2022-12-11T13:06:03;14.13;;;10.23;;
14688;SDS011;7432;48.728;9.154;2022-12-11T13:08:33;15.77;;;11.33;;
14688;SDS011;7432;48.728;9.154;2022-12-11T13:11:04;13.77;;;10.37;;
14688;SDS011;7432;48.728;9.154;2022-12-11T13:13:34;18.30;;;12.57;;
14688;SDS011;7432;48.728;9.154;2022-12-11T13:18:51;16.50;;;10.83;;
14688;SDS011;7432;48.728;9.154;2022-12-11T13:21:25;17.07;;;11.77;;
14688;SDS011;7432;48.728;9.154;2022-12-11T13:23:53;15.30;;;11.60;;
14688;SDS011;7432;48.728;9.154;2022-12-11T13:26:27;19.37;;;11.67;;
14688;SDS011;7432;48.728;9.154;2022-12-11T13:28:54;16.03;;;10.83;;
14688;SDS011;7432;48.728;9.154;2022-12-11T13:31:25;13.30;;;10.93;;
14688;SDS011;7432;48.728;9.154;2022-12-11T13:33:55;13.60;;;11.93;;
14688;SDS011;7432;48.728;9.154;2022-12-11T13:36:26;13.70;;;11.33;;
14688;SDS011;7432;48.728;9.154;2022-12-11T13:38:57;15.70;;;11.93;;
14688;SDS011;7432;48.728;9.154;2022-12-11T13:41:27;13.50;;;10.43;;
14688;SDS011;7432;48.728;9.154;2022-12-11T13:43:57;13.93;;;10.97;;
14688;SDS011;7432;48.728;9.154;2022-12-11T13:46:26;13.97;;;10.00;;
14688;SDS011;7432;48.728;9.154;2022-12-11T13:48:54;15.43;;;11.53;;
14688;SDS011;7432;48.728;9.154;2022-12-11T13:51:27;15.30;;;11.27;;
14688;SDS011;7432;48.728;9.154;2022-12-11T13:54:02;15.03;;;11.67;;
14688;SDS011;7432;48.728;9.154;2022-12-11T13:56:38;15.87;;;11.20;;
14688;SDS011;7432;48.728;9.154;2022-12-11T13:59:17;14.43;;;10.60;;
14688;SDS011;7432;48.728;9.154;2022-12-11T14:01:46;15.70;;;12.00;;
14688;SDS011;7432;48.728;9.154;2022-12-11T14:04:14;17.13;;;13.47;;
14688;SDS011;7432;48.728;9.154;2022-12-11T14:06:47;18.57;;;13.97;;
14688;SDS011;7432;48.728;9.154;2022-12-11T14:09:14;22.50;;;15.60;;
14688;SDS011;7432;48.728;9.154;2022-12-11T14:11:45;22.37;;;15.63;;
14688;SDS011;7432;48.728;9.154;2022-12-11T14:14:15;19.97;;;14.87;;
14688;SDS011;7432;48.728;9.154;2022-12-11T14:16:45;23.63;;;16.53;;
14688;SDS011;7432;48.728;9.154;2022-12-11T14:19:13;21.80;;;15.63;;
14688;SDS011;7432;48.728;9.154;2022-12-11T14:21:42;23.27;;;15.83;;
14688;SDS011;7432;48.728;9.154;2022-12-11T14:24:27;21.20;;;15.47;;
14688;SDS011;7432;48.728;9.154;2022-12-11T14:26:55;22.90;;;15.47;;
14688;SDS011;7432;48.728;9.154;2022-12-11T14:29:22;22.53;;;14.53;;
14688;SDS011;7432;48.728;9.154;2022-12-11T14:31:50;22.03;;;15.30;;
14688;SDS011;7432;48.728;9.154;2022-12-11T14:34:19;29.03;;;19.87;;
14688;SDS011;7432;48.728;9.154;2022-12-11T14:36:47;26.30;;;18.70;;
14688;SDS011;7432;48.728;9.154;2022-12-11T14:39:18;26.47;;;17.17;;
14688;SDS011;7432;48.728;9.154;2022-12-11T14:41:50;25.47;;;16.87;;
14688;SDS011;7432;48.728;9.154;2022-12-11T14:44:20;26.90;;;17.90;;
14688;SDS011;7432;48.728;9.154;2022-12-11T14:46:51;25.70;;;17.10;;
14688;SDS011;7432;48.728;9.154;2022-12-11T14:49:23;24.63;;;16.70;;
14688;SDS011;7432;48.728;9.154;2022-12-11T14:51:54;26.67;;;17.13;;
14688;SDS011;7432;48.728;9.154;2022-12-11T14:54:26;27.20;;;17.73;;